»·PEaware :: SWA472 KSAN-KPHX

SWA472 :: KSAN-KPHX

FLIGHT INFORMATION

Flight Status: Arrived
Operator:
Southwest Airlines
More flights by this operator :: More flights under this callsign
Pilot: Sebastião J. (17445)
Aircraft: BOEING 737-800
(B738)
More flights by this aircraft type
Origin: KSAN San Diego Intl-Lindbergh
United States
Destination: KPHX Phoenix Sky Harbor Intl
United States
More flights between these airports :: More routes between these airports
Route: ZZOOO1 IPL J18 BZA DCT HOGGZ HYDRR1
File this flight plan on PilotEdge
Remarks:
Altitude:
(Current/Filed)
350ft
Speed:
(Current/Filed)
440kts
Departed: 12-Jan-18 09:29 PM
Arrived: 12-Jan-18 10:21 PM
Distance/Time
Traveled:
264nm/0:52
Distance/Time
To Go:
Arrived

Flight Plot

Page will automatically refresh every two minutes.

Flight plan parsing failed; only flown route is shown


Map Options




Map Legend


Flown Route
Filed Route
Departure Airport
Arrival Airport
Navaid (VOR, NDB)
Fix

Horizontal Profiles

Position Reports

Time Latitude Longitude Heading Altitude Ground
Speed
12-Jan-18 20:57 32.733164 -117.196802 140 23ft 0kts
12-Jan-18 20:58 32.733164 -117.196802 140 23ft 0kts
12-Jan-18 20:59 32.733164 -117.196802 140 23ft 0kts
12-Jan-18 21:00 32.733164 -117.196802 140 23ft 0kts
12-Jan-18 21:01 32.733164 -117.196802 140 23ft 0kts
12-Jan-18 21:02 32.733164 -117.196802 140 23ft 0kts
12-Jan-18 21:03 32.733164 -117.196802 140 23ft 0kts
12-Jan-18 21:04 32.733164 -117.196802 140 23ft 0kts
12-Jan-18 21:05 32.733164 -117.196802 140 23ft 0kts
12-Jan-18 21:06 32.733164 -117.196802 140 23ft 0kts
12-Jan-18 21:07 32.733164 -117.196802 140 23ft 0kts
12-Jan-18 21:08 32.733164 -117.196802 140 23ft 0kts
12-Jan-18 21:09 32.733164 -117.196802 140 23ft 0kts
12-Jan-18 21:10 32.733164 -117.196802 140 23ft 0kts
12-Jan-18 21:11 32.733164 -117.196802 140 23ft 0kts
12-Jan-18 21:12 32.733164 -117.196802 140 23ft 0kts
12-Jan-18 21:13 32.733164 -117.196802 140 23ft 0kts
12-Jan-18 21:14 32.733164 -117.196802 140 23ft 0kts
12-Jan-18 21:15 32.733164 -117.196802 140 23ft 0kts
12-Jan-18 21:16 32.733164 -117.196802 140 23ft 0kts
12-Jan-18 21:17 32.733164 -117.196802 140 23ft 0kts
12-Jan-18 21:18 32.733164 -117.196802 140 23ft 0kts
12-Jan-18 21:19 32.733164 -117.196802 140 23ft 0kts
12-Jan-18 21:20 32.733299 -117.196933 140 23ft 2kts
12-Jan-18 21:21 32.733572 -117.197197 140 23ft 0kts
12-Jan-18 21:22 32.733572 -117.197197 140 23ft 0kts
12-Jan-18 21:23 32.733572 -117.197197 140 23ft 0kts
12-Jan-18 21:24 32.733546 -117.197061 71 23ft 2kts
12-Jan-18 21:25 32.733672 -117.194322 105 23ft 11kts
12-Jan-18 21:26 32.732905 -117.191183 106 23ft 8kts
12-Jan-18 21:27 32.731987 -117.187375 106 23ft 7kts
12-Jan-18 21:28 32.730861 -117.182696 105 23ft 8kts
12-Jan-18 21:29 32.730624 -117.181418 76 23ft 0kts
12-Jan-18 21:30 32.730624 -117.181418 76 23ft 0kts
12-Jan-18 21:31 32.730624 -117.181418 76 23ft 0kts
12-Jan-18 21:32 32.730624 -117.181418 76 23ft 0kts
12-Jan-18 21:33 32.731122 -117.181065 16 23ft 0kts
12-Jan-18 21:34 32.731513 -117.181210 286 23ft 6kts
12-Jan-18 21:35 32.734471 -117.193363 286 23ft 134kts
12-Jan-18 21:36 32.747899 -117.243328 285 2463ft 166kts
12-Jan-18 21:37 32.740923 -117.310626 220 4258ft 271kts
12-Jan-18 21:38 32.674469 -117.284296 135 7486ft 293kts
12-Jan-18 21:39 32.627045 -117.206779 97 10600ft 304kts
12-Jan-18 21:40 32.617883 -117.096009 93 12447ft 364kts
12-Jan-18 21:41 32.607037 -116.973272 93 15436ft 382kts
12-Jan-18 21:42 32.615343 -116.846436 73 18223ft 395kts
12-Jan-18 21:43 32.637321 -116.715223 80 20787ft 415kts
12-Jan-18 21:44 32.649701 -116.576498 81 23055ft 431kts
12-Jan-18 21:45 32.663139 -116.432781 80 25064ft 446kts
12-Jan-18 21:46 32.677735 -116.283824 80 26860ft 460kts
12-Jan-18 21:47 32.692032 -116.130941 80 28463ft 473kts
12-Jan-18 21:48 32.704105 -116.000526 80 29682ft 482kts
12-Jan-18 21:49 32.721432 -115.814435 80 31528ft 485kts
12-Jan-18 21:50 32.735878 -115.654877 80 33081ft 486kts
12-Jan-18 21:51 32.747751 -115.521242 80 34269ft 488kts
12-Jan-18 21:52 32.753023 -115.359453 85 35211ft 494kts
12-Jan-18 21:53 32.756423 -115.196813 85 35219ft 489kts
12-Jan-18 21:54 32.759765 -115.035320 85 35219ft 490kts
12-Jan-18 21:55 32.763776 -114.846578 85 35215ft 490kts
12-Jan-18 21:56 32.766229 -114.710923 85 34827ft 492kts
12-Jan-18 21:57 32.768883 -114.548917 85 33824ft 492kts
12-Jan-18 21:58 32.771257 -114.386004 85 32234ft 492kts
12-Jan-18 21:59 32.773271 -114.223480 85 30636ft 493kts
12-Jan-18 22:00 32.775606 -114.060877 82 29300ft 491kts
12-Jan-18 22:01 32.792760 -113.905549 77 29219ft 464kts
12-Jan-18 22:02 32.809510 -113.753457 77 29220ft 464kts
12-Jan-18 22:03 32.864434 -113.622266 42 28173ft 434kts
12-Jan-18 22:04 32.943706 -113.517311 42 26490ft 419kts
12-Jan-18 22:05 33.019507 -113.415019 42 23947ft 405kts
12-Jan-18 22:06 33.092971 -113.316009 42 21136ft 393kts
12-Jan-18 22:07 33.163178 -113.220916 43 18890ft 370kts
12-Jan-18 22:08 33.228744 -113.131761 43 17083ft 345kts
12-Jan-18 22:09 33.275157 -113.035203 78 15280ft 348kts
12-Jan-18 22:10 33.278320 -112.921285 84 15010ft 344kts
12-Jan-18 22:11 33.281195 -112.807677 80 15007ft 328kts
12-Jan-18 22:12 33.291606 -112.701415 78 14055ft 323kts
12-Jan-18 22:13 33.301914 -112.595444 79 12847ft 316kts
12-Jan-18 22:14 33.311540 -112.491457 79 11653ft 313kts
12-Jan-18 22:15 33.320693 -112.390460 79 11010ft 296kts
12-Jan-18 22:16 33.329856 -112.290690 80 10500ft 305kts
12-Jan-18 22:17 33.338748 -112.192242 80 9759ft 287kts
12-Jan-18 22:18 33.346880 -112.101137 80 9060ft 264kts
12-Jan-18 22:19 33.346999 -112.019817 87 8993ft 221kts
12-Jan-18 22:20 33.345828 -111.948906 88 7908ft 211kts
12-Jan-18 22:21 33.346130 -111.879234 87 6605ft 210kts
12-Jan-18 22:22 33.353133 -111.809636 47 5098ft 218kts
12-Jan-18 22:23 33.409395 -111.808805 313 3607ft 223kts
12-Jan-18 22:24 33.432564 -111.872388 262 2773ft 196kts
12-Jan-18 22:25 33.431379 -111.934181 268 1781ft 170kts
12-Jan-18 22:26 33.431137 -111.984583 260 1264ft 140kts
12-Jan-18 22:27 33.431187 -112.015164 293 1143ft 14kts
12-Jan-18 22:28 33.432082 -112.015525 52 1143ft 8kts
12-Jan-18 22:29 33.432838 -112.012263 88 1143ft 12kts
12-Jan-18 22:30 33.432833 -112.008409 90 1143ft 16kts
12-Jan-18 22:31 33.432837 -112.003547 90 1143ft 12kts
12-Jan-18 22:32 33.432861 -111.998294 89 1143ft 14kts
12-Jan-18 22:33 33.433324 -111.996933 31 1143ft 0kts
12-Jan-18 22:34 33.433407 -111.996871 31 1143ft 0kts
12-Jan-18 22:35 33.433407 -111.996871 31 1143ft 0kts
12-Jan-18 22:36 33.433407 -111.996871 31 1143ft 0kts
12-Jan-18 22:37 33.433407 -111.996871 31 1143ft 0kts

Navigation Log

Ident Type
Flight plan parsing failed, navigation log unavailable